createdAt,value
2023-04-12T00:03:39.424Z,73.27
2023-04-12T00:08:42.824Z,72.35
2023-04-12T00:13:44.321Z,74.30
2023-04-12T00:18:45.841Z,76.27
2023-04-12T00:23:47.617Z,77.90
2023-04-12T00:28:49.112Z,74.33
2023-04-12T00:33:50.626Z,73.57
2023-04-12T00:38:52.164Z,74.79
2023-04-12T00:43:53.906Z,76.98
2023-04-12T00:48:57.084Z,79.02
2023-04-12T00:54:00.049Z,76.77
2023-04-12T00:59:02.189Z,78.10
2023-04-12T01:04:04.752Z,77.65
2023-04-12T01:09:34.433Z,78.54
2023-04-12T01:14:44.441Z,79.15
2023-04-12T01:20:13.847Z,80.75
2023-04-12T01:25:32.614Z,81.06
2023-04-12T01:30:34.870Z,80.81
2023-04-12T01:35:37.966Z,80.08
2023-04-12T01:40:42.511Z,80.67
2023-04-12T01:45:44.236Z,80.52
2023-04-12T01:51:10.706Z,80.99
2023-04-12T01:56:13.096Z,80.82
2023-04-12T02:01:16.140Z,80.14
2023-04-12T02:06:22.931Z,80.52
2023-04-12T02:11:24.648Z,81.84
2023-04-12T02:16:29.489Z,81.84
2023-04-12T02:21:42.867Z,82.23
2023-04-12T02:26:44.352Z,81.59
2023-04-12T02:31:46.483Z,79.71
2023-04-12T02:36:49.303Z,80.89
2023-04-12T02:41:51.057Z,81.68
2023-04-12T02:46:52.591Z,82.20
2023-04-12T02:51:54.065Z,81.63
2023-04-12T02:56:55.831Z,81.69
2023-04-12T03:01:57.466Z,81.05
2023-04-12T03:06:59.273Z,80.21
2023-04-12T03:12:02.130Z,79.93
2023-04-12T03:17:03.616Z,80.13
2023-04-12T03:22:06.194Z,80.85
2023-04-12T03:27:08.360Z,80.64
2023-04-12T03:32:09.882Z,80.98
2023-04-12T03:37:11.512Z,81.58
2023-04-12T03:42:25.487Z,81.42
2023-04-12T03:47:33.780Z,81.03
2023-04-12T03:52:35.845Z,81.39
2023-04-12T03:57:37.436Z,81.17
2023-04-12T04:02:39.190Z,81.48
2023-04-12T04:07:40.796Z,81.32
2023-04-12T04:12:42.327Z,80.05
2023-04-12T04:17:44.821Z,80.09
2023-04-12T04:22:49.984Z,79.93
2023-04-12T04:27:52.091Z,78.96
2023-04-12T04:32:53.726Z,79.29
2023-04-12T04:37:55.728Z,78.76
2023-04-12T04:42:57.887Z,78.33
2023-04-12T04:47:59.472Z,78.63
2023-04-12T04:53:01.080Z,78.52
2023-04-12T04:58:02.573Z,78.64
2023-04-12T05:03:04.340Z,78.95
2023-04-12T05:08:06.216Z,79.47
2023-04-12T05:13:07.701Z,78.92
2023-04-12T05:18:09.219Z,78.68
2023-04-12T05:23:10.952Z,77.93
2023-04-12T05:28:14.387Z,77.61
2023-04-12T05:33:16.025Z,77.14
2023-04-12T05:38:17.607Z,76.90
2023-04-12T05:43:19.167Z,76.70
2023-04-12T05:48:21.647Z,76.50
2023-04-12T05:53:23.152Z,76.60
2023-04-12T05:58:24.788Z,76.12
2023-04-12T06:03:26.784Z,76.06
2023-04-12T06:08:29.496Z,75.88
2023-04-12T06:13:31.221Z,75.62
2023-04-12T06:18:33.216Z,75.38
2023-04-12T06:23:34.741Z,75.36
2023-04-12T06:28:36.443Z,75.61
2023-04-12T06:33:38.017Z,74.99
2023-04-12T06:38:39.618Z,75.03
2023-04-12T06:43:41.156Z,73.79
2023-04-12T06:48:42.648Z,73.66
2023-04-12T06:53:44.323Z,73.34
2023-04-12T06:58:46.058Z,72.59
2023-04-12T07:03:47.678Z,72.68
2023-04-12T07:08:49.695Z,72.70
2023-04-12T07:13:51.626Z,72.00
2023-04-12T07:18:53.353Z,71.79
2023-04-12T07:23:55.873Z,72.16
2023-04-12T07:28:57.800Z,71.25
2023-04-12T07:33:59.693Z,71.59
2023-04-12T07:39:01.353Z,71.67
2023-04-12T07:44:02.841Z,70.94
2023-04-12T07:49:04.493Z,70.65
2023-04-12T07:54:06.364Z,71.36
2023-04-12T07:59:08.039Z,71.13
2023-04-12T08:04:09.598Z,71.30
2023-04-12T08:09:11.254Z,71.38
2023-04-12T08:14:13.331Z,71.38
2023-04-12T08:19:14.850Z,70.35
2023-04-12T08:24:16.327Z,70.04
2023-04-12T08:29:18.375Z,69.60
2023-04-12T08:34:22.356Z,68.53
2023-04-12T08:39:23.948Z,68.05
2023-04-12T08:44:36.610Z,66.30
2023-04-12T08:49:38.200Z,66.29
2023-04-12T08:54:39.686Z,65.60
2023-04-12T08:59:43.696Z,66.44
2023-04-12T09:04:50.437Z,66.02
2023-04-12T09:09:52.130Z,64.91
2023-04-12T09:15:08.590Z,66.05
2023-04-12T09:20:16.149Z,65.86
2023-04-12T09:25:17.678Z,65.79
2023-04-12T09:30:20.833Z,64.96
2023-04-12T09:35:35.717Z,64.90
2023-04-12T09:40:38.240Z,64.81
2023-04-12T09:45:39.975Z,65.61
2023-04-12T09:50:41.622Z,63.56
2023-04-12T09:55:44.134Z,64.04
2023-04-12T10:00:47.102Z,62.24
2023-04-12T10:05:49.043Z,60.39
2023-04-12T10:10:52.208Z,62.33
2023-04-12T10:15:54.070Z,61.21
2023-04-12T10:20:56.043Z,62.47
2023-04-12T10:25:58.862Z,60.39
2023-04-12T10:31:00.716Z,58.75
2023-04-12T10:36:06.954Z,59.11
2023-04-12T10:41:11.878Z,58.57
2023-04-12T10:46:46.181Z,57.34
2023-04-12T10:52:09.525Z,58.32
2023-04-12T10:57:47.865Z,56.92
2023-04-12T11:03:12.108Z,56.04
2023-04-12T11:08:14.425Z,54.87
2023-04-12T11:13:17.011Z,55.59
2023-04-12T11:18:18.927Z,56.31
2023-04-12T11:23:22.109Z,56.50
2023-04-12T11:28:29.771Z,54.80
2023-04-12T11:33:36.867Z,55.59
2023-04-12T11:38:39.415Z,56.27
2023-04-12T11:43:41.029Z,56.00
2023-04-12T11:48:45.928Z,55.64
2023-04-12T11:53:52.663Z,57.32
2023-04-12T11:58:54.268Z,56.77
2023-04-12T12:03:56.512Z,57.52
2023-04-12T12:08:59.244Z,56.75
2023-04-12T12:14:01.191Z,56.53
2023-04-12T12:19:05.678Z,57.20
2023-04-12T12:24:07.366Z,57.45
2023-04-12T12:29:17.811Z,57.24
2023-04-12T12:34:19.760Z,57.05
2023-04-12T12:39:21.362Z,56.19
2023-04-12T12:44:24.066Z,57.57
2023-04-12T12:49:25.815Z,57.79
2023-04-12T12:54:40.591Z,57.30
2023-04-12T12:59:42.982Z,58.03
2023-04-12T13:04:44.634Z,56.34
2023-04-12T13:09:46.529Z,55.58
2023-04-12T13:14:48.596Z,55.98
2023-04-12T13:19:50.190Z,56.18
2023-04-12T13:24:51.693Z,55.34
2023-04-12T13:29:53.220Z,54.53
2023-04-12T13:34:54.745Z,54.81
2023-04-12T13:39:56.638Z,53.87
2023-04-12T13:44:58.236Z,53.96
2023-04-12T13:50:02.952Z,54.42
2023-04-12T13:55:08.261Z,54.06
2023-04-12T14:00:11.385Z,53.07
2023-04-12T14:05:12.901Z,52.80
2023-04-12T14:10:14.462Z,52.46
2023-04-12T14:15:16.441Z,53.78
2023-04-12T14:20:19.494Z,53.41
2023-04-12T14:25:21.457Z,53.80
2023-04-12T14:30:23.001Z,53.95
2023-04-12T14:35:24.884Z,53.64
2023-04-12T14:40:26.642Z,52.73
2023-04-12T14:45:28.249Z,52.69
2023-04-12T14:50:29.886Z,52.54
2023-04-12T14:55:32.769Z,51.87
2023-04-12T15:00:34.925Z,51.62
2023-04-12T15:05:36.489Z,52.27
2023-04-12T15:10:38.072Z,51.80
2023-04-12T15:15:39.690Z,52.24
2023-04-12T15:20:41.208Z,52.23
2023-04-12T15:25:42.846Z,52.84
2023-04-12T15:30:44.982Z,53.91
2023-04-12T15:35:48.335Z,54.83
2023-04-12T15:40:59.116Z,54.65
2023-04-12T15:46:01.615Z,55.38
2023-04-12T15:51:03.666Z,55.73
2023-04-12T15:56:05.846Z,56.10
2023-04-12T16:01:07.547Z,56.34
2023-04-12T16:06:09.289Z,56.52
2023-04-12T16:11:12.328Z,56.22
2023-04-12T16:16:17.326Z,55.95
2023-04-12T16:21:21.403Z,56.26
2023-04-12T16:26:23.526Z,56.14
2023-04-12T16:31:26.671Z,56.42
2023-04-12T16:36:31.604Z,56.70
2023-04-12T16:41:33.445Z,56.84
2023-04-12T16:46:35.022Z,56.94
2023-04-12T16:51:37.664Z,57.46
2023-04-12T16:56:39.475Z,57.67
2023-04-12T17:01:41.103Z,58.01
2023-04-12T17:06:44.249Z,58.37
2023-04-12T17:11:46.264Z,58.59
2023-04-12T17:16:47.850Z,58.79
2023-04-12T17:21:49.825Z,59.14
2023-04-12T17:26:51.602Z,59.52
2023-04-12T17:31:55.013Z,60.01
2023-04-12T17:36:56.962Z,60.10
2023-04-12T17:41:58.473Z,60.77
2023-04-12T17:47:00.000Z,60.99
2023-04-12T17:52:01.545Z,61.28
2023-04-12T17:57:04.139Z,61.49
2023-04-12T18:02:06.101Z,61.55
2023-04-12T18:07:10.327Z,61.92
2023-04-12T18:12:13.103Z,61.55
2023-04-12T18:17:14.627Z,61.66
2023-04-12T18:22:16.296Z,62.05
2023-04-12T18:27:17.800Z,61.79
2023-04-12T18:32:19.821Z,62.61
2023-04-12T18:37:21.639Z,63.21
2023-04-12T18:42:23.266Z,63.78
2023-04-12T18:47:26.631Z,63.30
2023-04-12T18:52:28.143Z,63.35
2023-04-12T18:57:30.292Z,64.12
2023-04-12T19:02:32.819Z,63.91
2023-04-12T19:07:34.484Z,63.10
2023-04-12T19:12:36.041Z,63.50
2023-04-12T19:17:39.404Z,64.21
2023-04-12T19:22:40.942Z,64.63
2023-04-12T19:27:42.441Z,63.96
2023-04-12T19:32:44.049Z,63.86
2023-04-12T19:37:47.057Z,64.35
2023-04-12T19:42:48.562Z,64.95
2023-04-12T19:47:50.925Z,64.83
2023-04-12T19:52:52.743Z,67.58
2023-04-12T19:57:55.772Z,66.07
2023-04-12T20:02:57.310Z,65.25
2023-04-12T20:07:59.088Z,65.78
2023-04-12T20:13:00.789Z,67.80
2023-04-12T20:18:02.417Z,69.00
2023-04-12T20:23:04.637Z,69.45
2023-04-12T20:28:09.026Z,71.91
2023-04-12T20:33:10.673Z,72.65
2023-04-12T20:38:13.222Z,72.73
2023-04-12T20:43:15.622Z,71.64
2023-04-12T20:48:18.353Z,70.51
2023-04-12T20:53:19.818Z,68.62
2023-04-12T20:58:21.865Z,69.13
2023-04-12T21:03:23.590Z,69.41
2023-04-12T21:08:25.207Z,67.80
2023-04-12T21:13:26.700Z,68.17
2023-04-12T21:18:28.312Z,67.81
2023-04-12T21:23:30.243Z,67.88
2023-04-12T21:28:31.884Z,68.35
2023-04-12T21:33:34.732Z,68.16
2023-04-12T21:38:36.581Z,68.59
2023-04-12T21:43:41.561Z,68.63
2023-04-12T21:48:43.517Z,69.25
2023-04-12T21:53:45.150Z,68.89
2023-04-12T21:58:46.637Z,68.78
2023-04-12T22:03:48.356Z,69.39
2023-04-12T22:08:49.981Z,69.27
2023-04-12T22:13:51.496Z,69.14
2023-04-12T22:18:53.036Z,69.77
2023-04-12T22:23:55.245Z,69.89
2023-04-12T22:28:56.747Z,69.89
2023-04-12T22:33:58.338Z,69.92
2023-04-12T22:38:59.984Z,70.40
2023-04-12T22:44:01.726Z,71.08
2023-04-12T22:49:03.310Z,71.16
2023-04-12T22:54:06.362Z,70.49
2023-04-12T22:59:14.915Z,71.03
2023-04-12T23:04:16.929Z,73.62
2023-04-12T23:09:19.783Z,72.71
2023-04-12T23:14:21.269Z,73.42
2023-04-12T23:19:23.324Z,72.72
2023-04-12T23:24:25.058Z,73.19
2023-04-12T23:29:26.788Z,73.07
2023-04-12T23:34:30.758Z,73.61
2023-04-12T23:39:32.139Z,73.71
2023-04-12T23:44:33.703Z,73.49
2023-04-12T23:49:35.453Z,74.46
2023-04-12T23:54:36.988Z,73.72
2023-04-12T23:59:39.045Z,73.64
